logo
Search for airport 
image banner adimage banner adimage banner ad
image banner ad

DIYO - Yamoussoukro

Located in Yamoussoukro, Cote D'Ivoire

ICAO - DIYO, IATA - ASK

Data provided by Airmate  

General information

Coordinates: N6°54'21" W5°21'50"
Elevation is 697 feet MSL.
 
Rated:
View ratings:
[VIEW]
View others Airports in Lacs

Operational data

Special qualification required
Current time UTC:
Current local time:
Weather
METAR: DIYO 111800Z 32004KT 6000 FEW013 FEW020CB 29/23 Q1010 NOSIG
TAF: TAF DIYO 111707Z 1118/1218 32006KT 7000 SCT012 PROB30 1118/1120 4000 HZ PROB40 1204/1209 3000 BR BKN010 PROB30 TEMPO 1205/1208 0400 FG PROB40 TEMPO 1209/1215 BKN012
View NOTAMs / SUP AIP / TFR affecting this airport [VIEW]
Communications frequencies: [VIEW]

Runways:

RWY identifierQFULength (ft)Width (ft)SurfaceLDA (ft)
0542°9843148ASP
23222°9843148ASP

Airport contact information

Address: Yamoussoukro Cote D'Ivoire

Satellite view of DIYO